Time;durP1;ratioP1;P1;durP2;ratioP2;P2;SDS_P1;SDS_P2;PMS_P1;PMS_P2;Temp;Humidity;BMP_temperature;BMP_pressure;BME280_temperature;BME280_humidity;BME280_pressure;Samples;Min_cycle;Max_cycle;Signal;HPM_P1;HPM_P2
2023/06/07 00:16:37;;;;;;;12.05;4.03;;;;;;;;;;5125179;27;20045;-75
2023/06/07 00:19:03;;;;;;;15.80;4.43;;;;;;;;;;5112882;27;20126;-74
2023/06/07 00:21:30;;;;;;;16.27;4.55;;;;;;;;;;5115132;27;20113;-75
2023/06/07 00:23:56;;;;;;;19.45;5.70;;;;;;;;;;5131788;27;20435;-75
2023/06/07 00:26:22;;;;;;;13.32;4.07;;;;;;;;;;5119131;27;20080;-75
2023/06/07 00:28:48;;;;;;;10.77;3.75;;;;;;;;;;5127709;27;20112;-74
2023/06/07 00:31:14;;;;;;;15.23;3.78;;;;;;;;;;5095639;27;20043;-75
2023/06/07 00:33:40;;;;;;;15.93;4.00;;;;;;;;;;5130926;27;20123;-75
2023/06/07 00:36:07;;;;;;;11.57;4.05;;;;;;;;;;5135872;27;20504;-75
2023/06/07 00:38:34;;;;;;;16.52;3.92;;;;;;;;;;5126701;27;20402;-75
2023/06/07 00:41:00;;;;;;;22.73;4.13;;;;;;;;;;5130863;27;20047;-75
2023/06/07 00:43:27;;;;;;;22.83;4.95;;;;;;;;;;5097735;27;20055;-75
2023/06/07 00:45:53;;;;;;;16.05;3.92;;;;;;;;;;5113279;27;20085;-75
2023/06/07 00:48:19;;;;;;;18.75;4.70;;;;;;;;;;5114682;27;20394;-74
2023/06/07 00:50:46;;;;;;;12.98;4.40;;;;;;;;;;5129813;27;20097;-75
2023/06/07 00:53:12;;;;;;;12.80;3.20;;;;;;;;;;5135346;27;20043;-74
2023/06/07 00:55:39;;;;;;;9.00;3.97;;;;;;;;;;5112297;27;21396;-75
2023/06/07 00:58:05;;;;;;;15.85;4.03;;;;;;;;;;5112029;27;20491;-75
2023/06/07 01:00:31;;;;;;;16.45;4.60;;;;;;;;;;5130029;27;20095;-75
2023/06/07 01:02:58;;;;;;;23.50;5.15;;;;;;;;;;5112664;27;20669;-74
2023/06/07 01:05:24;;;;;;;13.40;4.43;;;;;;;;;;5113581;27;20762;-74
2023/06/07 01:07:50;;;;;;;20.40;4.95;;;;;;;;;;5093599;27;20447;-74
2023/06/07 01:10:17;;;;;;;15.55;4.47;;;;;;;;;;5131600;27;20062;-74
2023/06/07 01:12:44;;;;;;;13.10;4.55;;;;;;;;;;5107710;27;20040;-75
2023/06/07 01:15:14;;;;;;;15.65;4.20;;;;;;;;;;5114797;27;20179;-74
2023/06/07 01:17:44;;;;;;;15.05;5.05;;;;;;;;;;5113234;27;20505;-75
2023/06/07 01:20:20;;;;;;;19.02;5.35;;;;;;;;;;5111867;27;20128;-75
2023/06/07 01:22:47;;;;;;;13.65;3.80;;;;;;;;;;5085660;27;20039;-75
2023/06/07 01:25:13;;;;;;;19.38;4.63;;;;;;;;;;5127579;27;20507;-75
2023/06/07 01:27:41;;;;;;;21.13;4.43;;;;;;;;;;5109356;27;20058;-74
2023/06/07 01:30:09;;;;;;;12.05;3.80;;;;;;;;;;5112590;27;20106;-75
2023/06/07 01:32:35;;;;;;;13.20;4.65;;;;;;;;;;5109935;27;20044;-75
2023/06/07 01:35:03;;;;;;;15.63;4.03;;;;;;;;;;5114416;27;20039;-75
2023/06/07 01:37:29;;;;;;;17.77;4.40;;;;;;;;;;5114504;27;20051;-75
2023/06/07 01:39:56;;;;;;;17.52;4.18;;;;;;;;;;5113099;27;20138;-74
2023/06/07 01:42:23;;;;;;;17.45;5.05;;;;;;;;;;5094388;27;20062;-75
2023/06/07 01:44:49;;;;;;;18.10;4.88;;;;;;;;;;5129112;27;20036;-74
2023/06/07 01:47:16;;;;;;;16.00;5.05;;;;;;;;;;5095796;27;20119;-74
2023/06/07 01:49:42;;;;;;;22.95;4.43;;;;;;;;;;5115364;27;20058;-74
2023/06/07 01:52:09;;;;;;;14.52;4.65;;;;;;;;;;5117413;27;20047;-75
2023/06/07 01:54:35;;;;;;;16.30;4.97;;;;;;;;;;5127565;27;20123;-74
2023/06/07 01:57:17;;;;;;;15.63;4.40;;;;;;;;;;5128583;27;20562;-75
2023/06/07 02:00:12;;;;;;;14.55;3.92;;;;;;;;;;5114851;27;20073;-75
2023/06/07 02:02:55;;;;;;;13.35;4.70;;;;;;;;;;5077080;27;20108;-74
2023/06/07 02:05:27;;;;;;;17.77;4.35;;;;;;;;;;5107199;27;20424;-75
2023/06/07 02:07:53;;;;;;;15.25;4.15;;;;;;;;;;5113828;27;20083;-71
2023/06/07 02:10:25;;;;;;;15.00;3.85;;;;;;;;;;5115321;27;20044;-71
2023/06/07 02:12:55;;;;;;;18.77;4.20;;;;;;;;;;5110957;27;20055;-75
2023/06/07 02:15:21;;;;;;;17.25;5.45;;;;;;;;;;5091925;27;20043;-74
2023/06/07 02:17:57;;;;;;;18.45;4.68;;;;;;;;;;5111863;27;20081;-75
2023/06/07 02:20:27;;;;;;;15.00;3.70;;;;;;;;;;5115857;27;20040;-75
2023/06/07 02:22:53;;;;;;;15.25;3.60;;;;;;;;;;5125709;27;20084;-74
2023/06/07 02:25:20;;;;;;;15.43;4.30;;;;;;;;;;5130927;27;20046;-74
2023/06/07 02:27:46;;;;;;;15.18;3.90;;;;;;;;;;5127468;27;20129;-74
2023/06/07 02:30:12;;;;;;;17.08;4.45;;;;;;;;;;5092602;27;20126;-75
2023/06/07 02:32:38;;;;;;;15.60;3.70;;;;;;;;;;5094592;27;20317;-75
2023/06/07 02:35:08;;;;;;;14.02;4.00;;;;;;;;;;5112618;27;20023;-75
2023/06/07 02:37:35;;;;;;;17.33;4.47;;;;;;;;;;5094289;27;20044;-75
2023/06/07 02:40:04;;;;;;;14.73;4.65;;;;;;;;;;5095685;27;20039;-75
2023/06/07 02:42:30;;;;;;;15.10;4.00;;;;;;;;;;5114894;27;20047;-74
2023/06/07 02:44:56;;;;;;;13.68;4.32;;;;;;;;;;5105147;27;20081;-75
2023/06/07 02:47:23;;;;;;;12.80;3.80;;;;;;;;;;5111487;27;20058;-75
2023/06/07 02:49:49;;;;;;;15.90;4.00;;;;;;;;;;5126025;27;20039;-75
2023/06/07 02:52:15;;;;;;;8.48;3.65;;;;;;;;;;5113963;27;20050;-75
2023/06/07 02:54:42;;;;;;;12.95;3.47;;;;;;;;;;5093904;27;20044;-75
2023/06/07 02:57:08;;;;;;;14.85;3.63;;;;;;;;;;5129824;27;20395;-75
2023/06/07 02:59:34;;;;;;;16.00;4.13;;;;;;;;;;5115385;27;20043;-75
2023/06/07 03:02:00;;;;;;;13.27;3.97;;;;;;;;;;5128770;27;20457;-75
2023/06/07 03:04:28;;;;;;;14.63;4.18;;;;;;;;;;5125919;27;20156;-74
2023/06/07 03:06:55;;;;;;;18.83;4.25;;;;;;;;;;5094757;27;20035;-75
2023/06/07 03:09:21;;;;;;;13.82;3.45;;;;;;;;;;5126455;27;20058;-75
2023/06/07 03:11:48;;;;;;;14.55;3.13;;;;;;;;;;5093003;27;20528;-75
2023/06/07 03:14:16;;;;;;;13.00;4.40;;;;;;;;;;5109804;27;20047;-74
2023/06/07 03:16:44;;;;;;;17.40;5.07;;;;;;;;;;5115067;27;20040;-75
2023/06/07 03:19:11;;;;;;;17.45;4.80;;;;;;;;;;5107587;27;20055;-75
2023/06/07 03:21:38;;;;;;;17.58;5.20;;;;;;;;;;5103075;27;20112;-75
2023/06/07 03:24:05;;;;;;;12.65;5.07;;;;;;;;;;5112531;28;20091;-75
2023/06/07 03:26:31;;;;;;;17.15;4.72;;;;;;;;;;5107520;28;20472;-75
2023/06/07 03:28:58;;;;;;;16.65;4.38;;;;;;;;;;5127539;27;20047;-74
2023/06/07 03:31:25;;;;;;;14.35;4.68;;;;;;;;;;5113272;27;20043;-75
2023/06/07 03:33:51;;;;;;;18.95;5.85;;;;;;;;;;5121476;27;20119;-74
2023/06/07 03:36:20;;;;;;;14.80;4.18;;;;;;;;;;5109643;28;20390;-75
2023/06/07 03:38:47;;;;;;;13.30;4.55;;;;;;;;;;5111178;27;20048;-75
2023/06/07 03:41:13;;;;;;;14.50;4.68;;;;;;;;;;5107052;27;20039;-75
2023/06/07 03:43:39;;;;;;;16.45;4.05;;;;;;;;;;5100051;27;20035;-75
2023/06/07 03:46:05;;;;;;;15.10;4.15;;;;;;;;;;5132792;27;20053;-75
2023/06/07 03:48:31;;;;;;;11.65;3.03;;;;;;;;;;5116948;27;20047;-75
2023/06/07 03:50:58;;;;;;;10.70;3.67;;;;;;;;;;5130456;27;20116;-75
2023/06/07 03:53:24;;;;;;;16.10;3.20;;;;;;;;;;5129870;27;20546;-75
2023/06/07 03:55:51;;;;;;;13.25;3.25;;;;;;;;;;5114572;27;20043;-75
2023/06/07 03:58:18;;;;;;;15.98;3.55;;;;;;;;;;5113438;27;20051;-74
2023/06/07 04:00:45;;;;;;;13.15;4.10;;;;;;;;;;5115268;27;20559;-74
2023/06/07 04:03:11;;;;;;;15.98;3.28;;;;;;;;;;5115609;27;20134;-75
2023/06/07 04:05:40;;;;;;;15.73;4.00;;;;;;;;;;5113228;27;20043;-74
2023/06/07 04:08:07;;;;;;;10.52;3.28;;;;;;;;;;5114665;27;20241;-74
2023/06/07 04:10:33;;;;;;;12.27;3.58;;;;;;;;;;5119043;27;20040;-75
2023/06/07 04:12:59;;;;;;;14.50;4.18;;;;;;;;;;5113283;27;20772;-75
2023/06/07 04:15:25;;;;;;;13.27;4.18;;;;;;;;;;5095660;27;20096;-75
2023/06/07 04:17:51;;;;;;;19.10;4.88;;;;;;;;;;5115129;27;20047;-75
2023/06/07 04:20:18;;;;;;;12.52;4.10;;;;;;;;;;5095892;27;20039;-74
2023/06/07 04:22:44;;;;;;;13.15;3.92;;;;;;;;;;5115995;27;20035;-74
2023/06/07 04:25:10;;;;;;;13.80;4.85;;;;;;;;;;5132316;27;20043;-75
2023/06/07 04:27:38;;;;;;;11.68;3.67;;;;;;;;;;5094359;27;20151;-74
2023/06/07 04:30:05;;;;;;;15.57;4.20;;;;;;;;;;5114139;27;20498;-74
2023/06/07 04:32:33;;;;;;;19.40;4.35;;;;;;;;;;5118661;27;20036;-75
2023/06/07 04:34:59;;;;;;;10.27;3.30;;;;;;;;;;5112893;27;20044;-75
2023/06/07 04:37:25;;;;;;;15.75;4.03;;;;;;;;;;5111437;27;20046;-75
2023/06/07 04:39:52;;;;;;;14.80;4.43;;;;;;;;;;5118336;27;20039;-75
2023/06/07 04:42:19;;;;;;;14.63;4.30;;;;;;;;;;5098475;27;20497;-75
2023/06/07 04:44:45;;;;;;;15.30;3.88;;;;;;;;;;5101165;27;20049;-75
2023/06/07 04:47:13;;;;;;;10.52;3.38;;;;;;;;;;5100986;27;20054;-74
2023/06/07 04:49:40;;;;;;;15.52;3.47;;;;;;;;;;5131069;27;20040;-71
2023/06/07 04:52:07;;;;;;;14.50;3.28;;;;;;;;;;5114780;27;20092;-74
2023/06/07 04:54:36;;;;;;;13.23;3.60;;;;;;;;;;5127754;27;20043;-75
2023/06/07 04:57:02;;;;;;;15.10;3.40;;;;;;;;;;5130898;27;20049;-74
2023/06/07 04:59:34;;;;;;;12.60;3.15;;;;;;;;;;5122294;27;20039;-75
2023/06/07 05:02:01;;;;;;;13.77;3.17;;;;;;;;;;5114404;27;20055;-74
2023/06/07 05:04:28;;;;;;;13.57;3.33;;;;;;;;;;5105934;27;20046;-75
2023/06/07 05:06:58;;;;;;;17.35;3.83;;;;;;;;;;5156725;27;20129;-74
2023/06/07 05:09:25;;;;;;;9.15;2.83;;;;;;;;;;5116452;27;20047;-77
2023/06/07 05:11:51;;;;;;;14.07;3.53;;;;;;;;;;5133559;27;20054;-74
2023/06/07 05:14:17;;;;;;;8.98;2.88;;;;;;;;;;5114966;27;20079;-75
2023/06/07 05:16:44;;;;;;;10.38;2.85;;;;;;;;;;5125511;27;20537;-75
2023/06/07 05:19:15;;;;;;;11.82;2.70;;;;;;;;;;5135219;27;20076;-75
2023/06/07 05:21:42;;;;;;;10.55;3.20;;;;;;;;;;5118329;27;20128;-75
2023/06/07 05:24:08;;;;;;;14.50;4.45;;;;;;;;;;5134823;27;20041;-75
2023/06/07 05:26:34;;;;;;;13.27;3.58;;;;;;;;;;5135455;27;20050;-75
2023/06/07 05:29:00;;;;;;;14.52;3.35;;;;;;;;;;5133868;27;20059;-74
2023/06/07 05:31:27;;;;;;;15.73;3.35;;;;;;;;;;5120680;27;20506;-75
2023/06/07 05:33:53;;;;;;;10.93;2.90;;;;;;;;;;5117203;27;20387;-76
2023/06/07 05:36:20;;;;;;;15.90;3.03;;;;;;;;;;5137685;27;20053;-77
2023/06/07 05:38:46;;;;;;;14.45;3.80;;;;;;;;;;5133795;27;20035;-76
2023/06/07 05:41:12;;;;;;;12.07;3.42;;;;;;;;;;5117014;27;20042;-76
2023/06/07 05:43:38;;;;;;;17.38;4.07;;;;;;;;;;5114745;27;20447;-77
2023/06/07 05:46:06;;;;;;;13.90;4.85;;;;;;;;;;5115392;27;20054;-76
2023/06/07 05:48:32;;;;;;;15.00;3.40;;;;;;;;;;5115340;27;20095;-77
2023/06/07 05:50:58;;;;;;;14.13;3.30;;;;;;;;;;5132653;27;20031;-76
2023/06/07 05:53:25;;;;;;;11.45;3.05;;;;;;;;;;5115117;27;20107;-76
2023/06/07 05:55:53;;;;;;;13.23;3.67;;;;;;;;;;5138858;27;20050;-76
2023/06/07 05:58:19;;;;;;;9.13;3.10;;;;;;;;;;5120195;27;20394;-76
2023/06/07 06:00:47;;;;;;;12.00;3.53;;;;;;;;;;5115055;27;20058;-77
2023/06/07 06:03:16;;;;;;;8.85;2.45;;;;;;;;;;5139865;27;20039;-74
2023/06/07 06:05:42;;;;;;;10.95;2.97;;;;;;;;;;5132972;27;20051;-74
2023/06/07 06:08:09;;;;;;;11.10;2.70;;;;;;;;;;5113898;27;20130;-74
2023/06/07 06:10:35;;;;;;;11.15;2.70;;;;;;;;;;5134177;27;20046;-73
2023/06/07 06:13:01;;;;;;;9.80;3.03;;;;;;;;;;5122934;27;20402;-74
2023/06/07 06:15:27;;;;;;;11.07;2.72;;;;;;;;;;5132120;27;20039;-74
2023/06/07 06:17:54;;;;;;;12.70;3.03;;;;;;;;;;5129114;27;20573;-73
2023/06/07 06:20:21;;;;;;;9.20;2.65;;;;;;;;;;5133671;27;20043;-70
2023/06/07 06:22:47;;;;;;;12.98;3.40;;;;;;;;;;5123821;27;20053;-72
2023/06/07 06:25:14;;;;;;;11.93;2.80;;;;;;;;;;5101108;27;20431;-75
2023/06/07 06:27:41;;;;;;;12.10;2.97;;;;;;;;;;5128498;27;20410;-74
2023/06/07 06:30:08;;;;;;;10.02;3.00;;;;;;;;;;5128039;27;20035;-75
2023/06/07 06:32:35;;;;;;;19.13;3.58;;;;;;;;;;5120573;27;20053;-75
2023/06/07 06:35:03;;;;;;;14.27;3.25;;;;;;;;;;5143763;27;20398;-78
2023/06/07 06:37:29;;;;;;;11.13;3.17;;;;;;;;;;5111773;27;20057;-75
2023/06/07 06:39:55;;;;;;;13.90;3.60;;;;;;;;;;5124297;27;20129;-75
2023/06/07 06:42:21;;;;;;;15.98;3.75;;;;;;;;;;5132663;27;20043;-75
2023/06/07 06:44:47;;;;;;;11.93;2.70;;;;;;;;;;5114224;27;20138;-73
2023/06/07 06:47:14;;;;;;;10.57;3.65;;;;;;;;;;5114224;27;20538;-71
2023/06/07 06:49:41;;;;;;;14.85;3.88;;;;;;;;;;5105260;27;20410;-73
2023/06/07 06:52:07;;;;;;;14.10;4.43;;;;;;;;;;5115296;27;20046;-78
2023/06/07 06:54:33;;;;;;;15.93;3.85;;;;;;;;;;5131895;27;20133;-71
2023/06/07 06:57:00;;;;;;;11.52;3.72;;;;;;;;;;5108572;27;20047;-74
2023/06/07 06:59:26;;;;;;;11.98;3.17;;;;;;;;;;5133250;27;20050;-73
2023/06/07 07:01:54;;;;;;;14.13;3.75;;;;;;;;;;5110627;27;20391;-73
2023/06/07 07:04:20;;;;;;;10.73;3.33;;;;;;;;;;5131478;27;20108;-73
2023/06/07 07:06:47;;;;;;;11.57;3.05;;;;;;;;;;5140678;27;20127;-76
2023/06/07 07:09:13;;;;;;;12.52;3.35;;;;;;;;;;5132762;27;20095;-73
2023/06/07 07:11:39;;;;;;;15.10;3.25;;;;;;;;;;5130786;27;20031;-73
2023/06/07 07:14:05;;;;;;;19.77;3.80;;;;;;;;;;5130814;27;20122;-73
2023/06/07 07:16:31;;;;;;;12.55;3.90;;;;;;;;;;5111304;27;20494;-73
2023/06/07 07:18:58;;;;;;;10.35;3.10;;;;;;;;;;5113464;27;20043;-73
2023/06/07 07:21:26;;;;;;;9.32;3.55;;;;;;;;;;5123111;27;20039;-73
2023/06/07 07:23:52;;;;;;;14.82;3.85;;;;;;;;;;5133005;27;20050;-72
2023/06/07 07:26:18;;;;;;;14.00;3.88;;;;;;;;;;5133982;27;20444;-74
2023/06/07 07:28:44;;;;;;;15.20;4.65;;;;;;;;;;5144857;27;20082;-73
2023/06/07 07:31:10;;;;;;;12.05;3.50;;;;;;;;;;5098324;28;20047;-73
2023/06/07 07:33:38;;;;;;;9.07;3.35;;;;;;;;;;5130705;27;20039;-74
2023/06/07 07:36:05;;;;;;;10.38;3.90;;;;;;;;;;5113892;28;20086;-73
2023/06/07 07:38:32;;;;;;;9.40;3.58;;;;;;;;;;5131020;28;20102;-73
2023/06/07 07:40:59;;;;;;;12.02;3.17;;;;;;;;;;5114640;28;20470;-74
2023/06/07 07:43:25;;;;;;;13.40;4.57;;;;;;;;;;5111764;27;20439;-74
2023/06/07 07:45:51;;;;;;;13.05;3.97;;;;;;;;;;5125977;28;20070;-74
2023/06/07 07:48:17;;;;;;;11.52;3.25;;;;;;;;;;5132394;28;20047;-74
2023/06/07 07:50:44;;;;;;;7.68;3.13;;;;;;;;;;5117629;27;20039;-74
2023/06/07 07:53:10;;;;;;;9.98;3.58;;;;;;;;;;5108797;28;20043;-74
2023/06/07 07:55:36;;;;;;;15.50;5.38;;;;;;;;;;5116878;27;20056;-74
2023/06/07 07:58:02;;;;;;;10.15;3.28;;;;;;;;;;5131590;27;20035;-73
2023/06/07 08:00:29;;;;;;;14.63;3.55;;;;;;;;;;5112567;28;20051;-74
2023/06/07 08:02:56;;;;;;;13.43;3.72;;;;;;;;;;5119792;28;20144;-73
2023/06/07 08:05:22;;;;;;;11.20;3.50;;;;;;;;;;5134287;27;20035;-74
2023/06/07 08:07:49;;;;;;;11.88;3.80;;;;;;;;;;5127704;27;20110;-74
2023/06/07 08:10:15;;;;;;;9.32;3.40;;;;;;;;;;5114100;28;20079;-74
2023/06/07 08:12:41;;;;;;;9.90;3.17;;;;;;;;;;5131713;27;20047;-74
2023/06/07 08:15:08;;;;;;;12.93;3.20;;;;;;;;;;5139444;27;20405;-74
2023/06/07 08:17:35;;;;;;;11.82;4.30;;;;;;;;;;5156065;27;20126;-74
2023/06/07 08:20:04;;;;;;;8.27;3.35;;;;;;;;;;5114525;28;20501;-74
2023/06/07 08:22:30;;;;;;;11.85;3.58;;;;;;;;;;5123087;27;20064;-74
2023/06/07 08:24:57;;;;;;;13.45;4.15;;;;;;;;;;5115811;28;20062;-74
2023/06/07 08:27:23;;;;;;;9.52;3.45;;;;;;;;;;5136437;27;20125;-74
2023/06/07 08:29:49;;;;;;;12.73;3.63;;;;;;;;;;5134567;27;20043;-74
2023/06/07 08:32:15;;;;;;;13.55;5.07;;;;;;;;;;5117420;27;20100;-74
2023/06/07 08:34:41;;;;;;;9.43;3.47;;;;;;;;;;5115659;27;20123;-74
2023/06/07 08:37:08;;;;;;;12.85;4.15;;;;;;;;;;5131160;27;20043;-74
2023/06/07 08:39:34;;;;;;;10.73;3.42;;;;;;;;;;5117770;27;20039;-74
2023/06/07 08:42:01;;;;;;;13.68;3.75;;;;;;;;;;5101033;27;20047;-74
2023/06/07 08:44:28;;;;;;;13.70;4.07;;;;;;;;;;5121455;27;20042;-74
2023/06/07 08:46:54;;;;;;;12.52;3.50;;;;;;;;;;5118457;27;20134;-74
2023/06/07 08:49:22;;;;;;;12.77;4.30;;;;;;;;;;5135419;27;20060;-74
2023/06/07 08:51:48;;;;;;;10.80;3.70;;;;;;;;;;5109810;27;20047;-74
2023/06/07 08:54:16;;;;;;;13.70;3.97;;;;;;;;;;5131344;27;20050;-74
2023/06/07 08:56:43;;;;;;;10.57;3.60;;;;;;;;;;5123175;27;20055;-74
2023/06/07 08:59:09;;;;;;;17.98;4.97;;;;;;;;;;5119544;27;20068;-74
2023/06/07 09:01:37;;;;;;;12.75;3.70;;;;;;;;;;5133224;27;20169;-74
2023/06/07 09:04:03;;;;;;;17.15;4.05;;;;;;;;;;5105180;27;20083;-74
2023/06/07 09:06:31;;;;;;;11.82;4.03;;;;;;;;;;5163140;27;20034;-74
2023/06/07 09:08:58;;;;;;;13.60;4.05;;;;;;;;;;5119002;27;20061;-73
2023/06/07 09:11:24;;;;;;;10.90;4.35;;;;;;;;;;5136935;27;20060;-73
2023/06/07 09:13:50;;;;;;;13.68;4.03;;;;;;;;;;5131196;27;20088;-74
2023/06/07 09:16:17;;;;;;;8.55;3.65;;;;;;;;;;5136948;27;20031;-74
2023/06/07 09:18:53;;;;;;;21.00;4.40;;;;;;;;;;5160408;27;20055;-74
2023/06/07 09:21:20;;;;;;;12.73;3.92;;;;;;;;;;5134638;27;20159;-74
2023/06/07 09:23:46;;;;;;;10.75;4.70;;;;;;;;;;5116465;27;20051;-74
2023/06/07 09:26:12;;;;;;;13.75;4.45;;;;;;;;;;5134058;27;20114;-74
2023/06/07 09:28:38;;;;;;;11.35;5.00;;;;;;;;;;5126313;27;20054;-74
2023/06/07 09:31:05;;;;;;;18.70;6.18;;;;;;;;;;5113822;27;20047;-74
2023/06/07 09:33:33;;;;;;;12.07;5.65;;;;;;;;;;5135403;27;20039;-70
2023/06/07 09:36:03;;;;;;;15.30;5.95;;;;;;;;;;5115824;27;20053;-70
2023/06/07 09:38:29;;;;;;;14.07;4.95;;;;;;;;;;5133448;27;20118;-70
2023/06/07 09:40:59;;;;;;;15.98;5.60;;;;;;;;;;5115642;27;20073;-70
2023/06/07 09:43:25;;;;;;;12.13;4.75;;;;;;;;;;5117853;27;20050;-71
2023/06/07 09:45:56;;;;;;;13.15;4.88;;;;;;;;;;5107790;27;20039;-71
2023/06/07 09:48:22;;;;;;;11.93;4.75;;;;;;;;;;5145100;27;20149;-73
2023/06/07 09:50:55;;;;;;;14.32;4.57;;;;;;;;;;5121519;27;20043;-71
2023/06/07 09:53:21;;;;;;;11.05;4.38;;;;;;;;;;5113898;27;20043;-70
2023/06/07 09:55:48;;;;;;;10.82;4.30;;;;;;;;;;5114581;27;20039;-70
2023/06/07 09:58:22;;;;;;;13.30;4.50;;;;;;;;;;5121626;27;20045;-68
2023/06/07 10:00:48;;;;;;;11.75;4.82;;;;;;;;;;5129816;27;20054;-68
2023/06/07 10:03:15;;;;;;;11.00;4.32;;;;;;;;;;5133161;27;20404;-68
2023/06/07 10:05:42;;;;;;;11.45;4.32;;;;;;;;;;5118289;27;20046;-68
2023/06/07 10:08:10;;;;;;;11.75;4.32;;;;;;;;;;5116469;27;20043;-68
2023/06/07 10:10:36;;;;;;;11.23;4.10;;;;;;;;;;5114448;27;20086;-68
2023/06/07 10:13:05;;;;;;;10.52;3.97;;;;;;;;;;5126857;27;20062;-68
2023/06/07 10:15:32;;;;;;;10.48;3.78;;;;;;;;;;5136908;27;20042;-68
2023/06/07 10:18:00;;;;;;;12.23;4.63;;;;;;;;;;5136438;27;20051;-68
2023/06/07 10:20:30;;;;;;;11.60;4.63;;;;;;;;;;5132719;27;20399;-68
2023/06/07 10:23:03;;;;;;;8.90;3.72;;;;;;;;;;5135176;27;20041;-68
2023/06/07 10:25:31;;;;;;;11.75;4.20;;;;;;;;;;5127479;27;20119;-68
2023/06/07 10:28:05;;;;;;;11.00;4.07;;;;;;;;;;5119196;27;20063;-68
2023/06/07 10:30:33;;;;;;;10.52;4.13;;;;;;;;;;5109217;27;20043;-68
2023/06/07 10:32:59;;;;;;;11.88;4.10;;;;;;;;;;5140696;27;20042;-68
2023/06/07 10:35:25;;;;;;;14.63;5.88;;;;;;;;;;5141147;27;20061;-68
2023/06/07 10:37:55;;;;;;;11.35;4.05;;;;;;;;;;5103257;27;20096;-68
2023/06/07 10:40:21;;;;;;;14.43;4.78;;;;;;;;;;5136402;27;20034;-68
2023/06/07 10:42:48;;;;;;;10.73;4.38;;;;;;;;;;5133658;27;20039;-68
2023/06/07 10:45:18;;;;;;;11.93;4.85;;;;;;;;;;5113612;27;20089;-68
2023/06/07 10:47:44;;;;;;;11.80;5.18;;;;;;;;;;5114807;27;20516;-68
2023/06/07 10:50:32;;;;;;;12.73;4.20;;;;;;;;;;5099019;27;20056;-68
2023/06/07 10:52:58;;;;;;;9.40;4.57;;;;;;;;;;5116875;27;20039;-66
2023/06/07 10:55:30;;;;;;;11.45;4.82;;;;;;;;;;5147740;27;20047;-68
2023/06/07 10:57:56;;;;;;;13.18;4.93;;;;;;;;;;5115192;27;20507;-68
2023/06/07 11:00:28;;;;;;;12.55;4.82;;;;;;;;;;5131900;27;20600;-68
2023/06/07 11:03:12;;;;;;;11.32;4.68;;;;;;;;;;5135687;27;20644;-68
2023/06/07 11:05:53;;;;;;;10.70;4.70;;;;;;;;;;5125520;27;20090;-68
2023/06/07 11:08:29;;;;;;;10.88;4.22;;;;;;;;;;5123098;27;20501;-68
2023/06/07 11:11:01;;;;;;;12.18;4.25;;;;;;;;;;5115922;27;20039;-84
2023/06/07 11:13:39;;;;;;;12.80;4.53;;;;;;;;;;5136636;27;20038;-67
2023/06/07 11:16:24;;;;;;;10.55;4.10;;;;;;;;;;5135574;27;20047;-68
2023/06/07 11:18:56;;;;;;;13.18;4.53;;;;;;;;;;5142422;27;20069;-68
2023/06/07 11:21:23;;;;;;;;;;;;;;;;;;5132918;27;20092;-68
2023/06/07 11:24:08;;;;;;;9.93;4.30;;;;;;;;;;5131416;27;19919;-68
2023/06/07 11:26:37;;;;;;;13.05;4.30;;;;;;;;;;5139181;27;20035;-68
2023/06/07 11:29:05;;;;;;;8.45;3.55;;;;;;;;;;5132338;28;20090;-68
2023/06/07 11:31:31;;;;;;;10.35;3.72;;;;;;;;;;5131876;27;20138;-68
2023/06/07 11:33:58;;;;;;;9.85;3.80;;;;;;;;;;5130183;27;20039;-68
2023/06/07 11:36:24;;;;;;;8.98;3.70;;;;;;;;;;5114860;28;20043;-80
2023/06/07 11:38:53;;;;;;;10.98;4.07;;;;;;;;;;5112735;28;20070;-66
2023/06/07 11:41:23;;;;;;;12.13;3.55;;;;;;;;;;5113774;28;20068;-68
2023/06/07 11:43:49;;;;;;;11.10;4.00;;;;;;;;;;5132468;28;20123;-68
2023/06/07 11:46:16;;;;;;;10.32;4.20;;;;;;;;;;5114532;27;20115;-68
2023/06/07 11:48:43;;;;;;;12.45;4.20;;;;;;;;;;5114085;28;20053;-68
2023/06/07 11:51:09;;;;;;;10.07;4.00;;;;;;;;;;5107896;28;20048;-68
2023/06/07 11:53:35;;;;;;;11.10;4.00;;;;;;;;;;5105378;27;20079;-68
2023/06/07 11:56:02;;;;;;;13.65;4.50;;;;;;;;;;5134051;27;20034;-69
2023/06/07 11:58:30;;;;;;;11.60;4.75;;;;;;;;;;5113331;28;20039;-68
2023/06/07 12:00:57;;;;;;;10.65;4.13;;;;;;;;;;5129486;27;20043;-68
2023/06/07 12:03:24;;;;;;;12.30;4.07;;;;;;;;;;5142750;27;20083;-68
2023/06/07 12:05:51;;;;;;;11.55;4.13;;;;;;;;;;5147312;27;20054;-68
2023/06/07 12:08:17;;;;;;;11.38;4.18;;;;;;;;;;5120122;27;20126;-68
2023/06/07 12:10:47;;;;;;;14.20;4.47;;;;;;;;;;5134076;27;20039;-68
2023/06/07 12:13:15;;;;;;;11.43;4.18;;;;;;;;;;5140913;27;20035;-68
2023/06/07 12:15:46;;;;;;;10.60;3.33;;;;;;;;;;5136155;27;20486;-68
2023/06/07 12:18:13;;;;;;;9.27;3.33;;;;;;;;;;5149123;27;20554;-68
2023/06/07 12:20:40;;;;;;;12.10;3.85;;;;;;;;;;5132034;27;20039;-77
2023/06/07 12:23:06;;;;;;;9.02;3.80;;;;;;;;;;5134258;27;20478;-66
2023/06/07 12:25:34;;;;;;;9.38;3.38;;;;;;;;;;5133697;27;20039;-67
2023/06/07 12:28:05;;;;;;;9.80;3.60;;;;;;;;;;5141672;27;20055;-68
2023/06/07 12:30:37;;;;;;;7.55;3.50;;;;;;;;;;5140821;27;20047;-72
2023/06/07 12:33:03;;;;;;;10.07;3.55;;;;;;;;;;5100692;27;20052;-72
2023/06/07 12:35:37;;;;;;;8.65;3.63;;;;;;;;;;5116712;27;20469;-72
2023/06/07 12:38:04;;;;;;;8.98;3.70;;;;;;;;;;5135755;27;20479;-72
2023/06/07 12:40:30;;;;;;;9.77;4.47;;;;;;;;;;5112534;27;20047;-72
2023/06/07 12:42:56;;;;;;;10.73;3.47;;;;;;;;;;5110473;27;20051;-72
2023/06/07 12:45:23;;;;;;;9.73;3.00;;;;;;;;;;5135606;27;20085;-72
2023/06/07 12:47:49;;;;;;;9.10;3.15;;;;;;;;;;5134381;27;20102;-72
2023/06/07 12:50:16;;;;;;;10.38;3.30;;;;;;;;;;5129043;27;20115;-72
2023/06/07 12:52:42;;;;;;;11.65;4.45;;;;;;;;;;5102497;27;20035;-72
2023/06/07 12:55:09;;;;;;;11.27;4.07;;;;;;;;;;5115031;27;20039;-72
2023/06/07 12:57:35;;;;;;;11.77;3.92;;;;;;;;;;5107169;27;20348;-72
2023/06/07 13:00:01;;;;;;;10.73;3.75;;;;;;;;;;5130437;27;20391;-72
2023/06/07 13:02:28;;;;;;;12.13;3.72;;;;;;;;;;5128323;27;20142;-72
2023/06/07 13:04:54;;;;;;;8.43;3.33;;;;;;;;;;5135221;27;20035;-72
2023/06/07 13:07:21;;;;;;;8.70;3.53;;;;;;;;;;5133156;27;20103;-72
2023/06/07 13:09:51;;;;;;;12.80;4.20;;;;;;;;;;5112382;27;20043;-72
2023/06/07 13:12:17;;;;;;;16.48;4.43;;;;;;;;;;5141820;27;20120;-72
2023/06/07 13:14:43;;;;;;;10.40;3.88;;;;;;;;;;5115064;27;20490;-72
2023/06/07 13:17:10;;;;;;;10.18;3.45;;;;;;;;;;5115813;27;20118;-72
2023/06/07 13:19:37;;;;;;;11.10;4.78;;;;;;;;;;5133633;27;20054;-72
2023/06/07 13:22:03;;;;;;;10.85;3.97;;;;;;;;;;5124419;27;20608;-72
2023/06/07 13:24:30;;;;;;;9.60;4.28;;;;;;;;;;5132764;27;20552;-72
2023/06/07 13:26:59;;;;;;;12.13;4.30;;;;;;;;;;5120643;27;20062;-72
2023/06/07 13:29:25;;;;;;;10.27;3.92;;;;;;;;;;5112762;28;20056;-72
2023/06/07 13:31:51;;;;;;;10.25;3.78;;;;;;;;;;5110753;27;20039;-72
2023/06/07 13:34:17;;;;;;;9.10;3.58;;;;;;;;;;5122735;27;20040;-72
2023/06/07 13:36:44;;;;;;;9.65;3.97;;;;;;;;;;5123884;27;20497;-71
2023/06/07 13:39:10;;;;;;;12.13;4.30;;;;;;;;;;5113059;27;20074;-72
2023/06/07 13:41:39;;;;;;;11.07;4.20;;;;;;;;;;5101129;27;20107;-72
2023/06/07 13:44:07;;;;;;;10.38;3.58;;;;;;;;;;5117507;27;20119;-72
2023/06/07 13:46:33;;;;;;;12.38;3.63;;;;;;;;;;5118297;27;20043;-72
2023/06/07 13:48:59;;;;;;;10.85;3.70;;;;;;;;;;5122821;27;20047;-72
2023/06/07 13:51:25;;;;;;;8.88;3.05;;;;;;;;;;5086964;28;20479;-72
2023/06/07 13:53:52;;;;;;;12.60;3.88;;;;;;;;;;5103131;27;20039;-72
2023/06/07 13:56:18;;;;;;;13.68;4.00;;;;;;;;;;5143320;27;20454;-72
2023/06/07 13:58:45;;;;;;;10.82;3.83;;;;;;;;;;5110512;27;20050;-72
2023/06/07 14:01:13;;;;;;;13.65;3.65;;;;;;;;;;5122541;27;20498;-71
2023/06/07 14:03:40;;;;;;;10.38;3.35;;;;;;;;;;5098354;28;20147;-72
2023/06/07 14:06:07;;;;;;;11.45;3.80;;;;;;;;;;5112724;28;20039;-72
2023/06/07 14:08:33;;;;;;;10.90;3.70;;;;;;;;;;5112107;27;20051;-72
2023/06/07 14:11:00;;;;;;;9.75;3.38;;;;;;;;;;5117953;27;20078;-72
2023/06/07 14:13:26;;;;;;;12.50;4.15;;;;;;;;;;5109837;27;20618;-72
2023/06/07 14:15:52;;;;;;;11.38;3.45;;;;;;;;;;5113322;28;20079;-72
2023/06/07 14:18:18;;;;;;;10.48;3.88;;;;;;;;;;5114239;27;20050;-72
2023/06/07 14:20:44;;;;;;;11.70;3.95;;;;;;;;;;5111148;28;20086;-72
2023/06/07 14:23:11;;;;;;;11.50;4.07;;;;;;;;;;5113911;27;20062;-72
2023/06/07 14:25:37;;;;;;;12.27;3.90;;;;;;;;;;5108054;27;20040;-72
2023/06/07 14:28:03;;;;;;;13.40;3.70;;;;;;;;;;5110008;27;20055;-72
2023/06/07 14:30:30;;;;;;;11.48;4.60;;;;;;;;;;5111742;28;20048;-71
2023/06/07 14:32:56;;;;;;;11.57;3.85;;;;;;;;;;5112464;28;20066;-72
2023/06/07 14:35:22;;;;;;;9.40;3.83;;;;;;;;;;5110782;27;20035;-72
2023/06/07 14:37:48;;;;;;;11.30;3.80;;;;;;;;;;5109314;28;20048;-71
2023/06/07 14:40:15;;;;;;;14.40;4.40;;;;;;;;;;5111429;27;20047;-71
2023/06/07 14:42:41;;;;;;;11.20;4.53;;;;;;;;;;5117516;27;20043;-68
2023/06/07 14:45:07;;;;;;;15.80;4.63;;;;;;;;;;5119361;27;20444;-71
2023/06/07 14:47:34;;;;;;;9.68;3.92;;;;;;;;;;5114891;27;20101;-70